createdAt,value
2023-03-30T00:00:48.891Z,12.40
2023-03-30T00:03:19.333Z,12.40
2023-03-30T00:05:51.697Z,12.50
2023-03-30T00:08:19.152Z,12.40
2023-03-30T00:10:46.521Z,12.40
2023-03-30T00:13:13.864Z,12.40
2023-03-30T00:15:41.234Z,12.40
2023-03-30T00:18:09.344Z,12.30
2023-03-30T00:20:37.748Z,12.30
2023-03-30T00:23:04.745Z,12.30
2023-03-30T00:25:31.681Z,12.20
2023-03-30T00:27:58.616Z,12.20
2023-03-30T00:30:25.912Z,12.10
2023-03-30T00:32:53.921Z,12.10
2023-03-30T00:35:21.108Z,12.00
2023-03-30T00:37:49.625Z,12.00
2023-03-30T00:40:20.326Z,11.90
2023-03-30T00:42:47.789Z,11.90
2023-03-30T00:45:19.681Z,11.80
2023-03-30T00:48:12.076Z,11.80
2023-03-30T00:50:43.419Z,11.80
2023-03-30T00:53:17.789Z,11.80
2023-03-30T00:55:47.594Z,11.80
2023-03-30T00:58:16.608Z,11.70
2023-03-30T01:00:47.417Z,11.60
2023-03-30T01:03:24.644Z,11.60
2023-03-30T01:05:52.770Z,11.60
2023-03-30T01:08:20.411Z,11.70
2023-03-30T01:10:47.466Z,11.70
2023-03-30T01:13:15.144Z,11.70
2023-03-30T01:16:23.224Z,11.70
2023-03-30T01:19:02.053Z,11.70
2023-03-30T01:22:04.826Z,11.70
2023-03-30T01:25:08.586Z,11.60
2023-03-30T01:28:08.830Z,11.60
2023-03-30T01:30:54.376Z,11.60
2023-03-30T01:33:32.976Z,11.60
2023-03-30T01:36:24.452Z,11.60
2023-03-30T01:39:25.128Z,11.70
2023-03-30T01:42:13.959Z,11.80
2023-03-30T01:44:49.297Z,12.00
2023-03-30T01:47:53.993Z,12.20
2023-03-30T01:50:21.119Z,12.30
2023-03-30T01:52:58.156Z,12.20
2023-03-30T01:55:33.025Z,12.10
2023-03-30T01:58:14.657Z,12.10
2023-03-30T02:00:43.855Z,12.00
2023-03-30T02:03:27.529Z,12.00
2023-03-30T02:05:58.541Z,11.90
2023-03-30T02:08:29.977Z,11.90
2023-03-30T02:10:58.756Z,11.80
2023-03-30T02:13:28.654Z,11.80
2023-03-30T02:16:00.551Z,11.70
2023-03-30T02:18:27.526Z,11.70
2023-03-30T02:20:58.792Z,11.70
2023-03-30T02:23:33.738Z,11.70
2023-03-30T02:26:00.883Z,11.70
2023-03-30T02:28:28.034Z,11.70
2023-03-30T02:30:55.255Z,11.70
2023-03-30T02:33:37.265Z,11.70
2023-03-30T02:36:16.025Z,11.70
2023-03-30T02:39:21.206Z,11.60
2023-03-30T02:42:10.138Z,11.60
2023-03-30T02:45:11.301Z,11.70
2023-03-30T02:47:47.139Z,11.70
2023-03-30T02:50:27.739Z,11.80
2023-03-30T02:53:20.875Z,11.80
2023-03-30T02:55:54.401Z,11.80
2023-03-30T02:58:33.437Z,11.80
2023-03-30T03:01:19.930Z,11.80
2023-03-30T03:03:49.753Z,11.80
2023-03-30T03:06:17.432Z,11.80
2023-03-30T03:08:47.840Z,11.70
2023-03-30T03:11:14.645Z,11.60
2023-03-30T03:13:42.321Z,11.60
2023-03-30T03:16:12.267Z,11.60
2023-03-30T03:18:42.706Z,11.50
2023-03-30T03:21:10.760Z,11.50
2023-03-30T03:23:37.869Z,11.50
2023-03-30T03:26:05.942Z,11.50
2023-03-30T03:28:32.871Z,11.50
2023-03-30T03:31:00.069Z,11.50
2023-03-30T03:33:27.826Z,11.50
2023-03-30T03:35:55.308Z,11.40
2023-03-30T03:38:22.642Z,11.30
2023-03-30T03:40:51.442Z,11.30
2023-03-30T03:43:19.195Z,11.20
2023-03-30T03:45:46.649Z,11.20
2023-03-30T03:48:14.672Z,11.20
2023-03-30T03:50:42.478Z,11.10
2023-03-30T03:53:11.077Z,11.10
2023-03-30T03:55:38.296Z,11.10
2023-03-30T03:58:07.160Z,11.10
2023-03-30T04:00:34.398Z,11.10
2023-03-30T04:03:01.501Z,11.10
2023-03-30T04:05:28.284Z,11.10
2023-03-30T04:07:56.802Z,11.00
2023-03-30T04:10:24.090Z,11.00
2023-03-30T04:12:50.854Z,11.00
2023-03-30T04:15:17.603Z,11.10
2023-03-30T04:17:47.313Z,11.00
2023-03-30T04:20:15.379Z,11.00
2023-03-30T04:22:42.796Z,11.00
2023-03-30T04:25:11.507Z,11.00
2023-03-30T04:27:38.579Z,10.90
2023-03-30T04:30:05.905Z,11.00
2023-03-30T04:32:34.852Z,10.90
2023-03-30T04:35:03.395Z,10.90
2023-03-30T04:37:30.386Z,10.90
2023-03-30T04:40:01.028Z,10.80
2023-03-30T04:42:34.328Z,10.80
2023-03-30T04:45:01.283Z,10.80
2023-03-30T04:47:28.892Z,10.80
2023-03-30T04:49:55.877Z,10.80
2023-03-30T04:52:23.259Z,10.80
2023-03-30T04:54:50.004Z,10.80
2023-03-30T04:57:17.149Z,10.80
2023-03-30T04:59:44.700Z,10.80
2023-03-30T05:02:13.232Z,10.70
2023-03-30T05:04:40.420Z,10.70
2023-03-30T05:07:07.910Z,10.70
2023-03-30T05:09:34.699Z,10.70
2023-03-30T05:12:01.871Z,10.70
2023-03-30T05:14:28.597Z,10.70
2023-03-30T05:16:56.178Z,10.70
2023-03-30T05:19:22.989Z,10.70
2023-03-30T05:21:49.908Z,10.70
2023-03-30T05:24:16.875Z,10.60
2023-03-30T05:26:43.785Z,10.60
2023-03-30T05:29:10.792Z,10.60
2023-03-30T05:31:37.823Z,10.60
2023-03-30T05:34:05.084Z,10.60
2023-03-30T05:36:31.950Z,10.60
2023-03-30T05:38:59.183Z,10.60
2023-03-30T05:41:27.972Z,10.60
2023-03-30T05:43:54.836Z,10.60
2023-03-30T05:46:21.578Z,10.60
2023-03-30T05:48:48.417Z,10.60
2023-03-30T05:51:15.091Z,10.60
2023-03-30T05:53:41.986Z,10.60
2023-03-30T05:56:10.444Z,10.60
2023-03-30T05:58:37.156Z,10.60
2023-03-30T06:01:05.903Z,10.60
2023-03-30T06:03:33.279Z,10.60
2023-03-30T06:06:00.388Z,10.50
2023-03-30T06:08:27.455Z,10.60
2023-03-30T06:10:55.596Z,10.60
2023-03-30T06:13:22.746Z,10.60
2023-03-30T06:15:49.820Z,10.60
2023-03-30T06:18:16.739Z,10.60
2023-03-30T06:20:47.533Z,10.50
2023-03-30T06:23:14.913Z,10.60
2023-03-30T06:25:45.722Z,10.60
2023-03-30T06:28:12.633Z,10.60
2023-03-30T06:30:39.767Z,10.60
2023-03-30T06:33:06.480Z,10.60
2023-03-30T06:35:33.297Z,10.70
2023-03-30T06:38:00.000Z,10.70
2023-03-30T06:40:26.827Z,10.80
2023-03-30T06:42:53.615Z,10.80
2023-03-30T06:45:20.453Z,10.90
2023-03-30T06:47:47.766Z,10.90
2023-03-30T06:50:14.573Z,11.00
2023-03-30T06:52:41.361Z,11.00
2023-03-30T06:55:09.419Z,11.00
2023-03-30T06:57:36.554Z,11.10
2023-03-30T07:00:15.268Z,11.20
2023-03-30T07:02:42.069Z,11.30
2023-03-30T07:05:09.605Z,11.30
2023-03-30T07:07:37.233Z,11.30
2023-03-30T07:10:10.141Z,11.40
2023-03-30T07:12:38.220Z,11.40
2023-03-30T07:15:07.871Z,11.40
2023-03-30T07:17:35.779Z,11.40
2023-03-30T07:20:04.907Z,11.40
2023-03-30T07:22:31.983Z,11.50
2023-03-30T07:24:58.835Z,11.50
2023-03-30T07:27:26.005Z,11.40
2023-03-30T07:29:53.603Z,11.50
2023-03-30T07:32:20.778Z,11.40
2023-03-30T07:34:47.584Z,11.40
2023-03-30T07:37:20.366Z,11.40
2023-03-30T07:39:47.851Z,11.40
2023-03-30T07:42:14.795Z,11.40
2023-03-30T07:44:41.457Z,11.40
2023-03-30T07:47:08.483Z,11.30
2023-03-30T07:49:35.471Z,11.40
2023-03-30T07:52:02.374Z,11.30
2023-03-30T07:54:29.421Z,11.30
2023-03-30T07:56:56.524Z,11.30
2023-03-30T07:59:24.118Z,11.30
2023-03-30T08:01:54.314Z,11.30
2023-03-30T08:04:26.166Z,11.30
2023-03-30T08:06:53.734Z,11.30
2023-03-30T08:09:20.534Z,11.30
2023-03-30T08:11:47.210Z,11.30
2023-03-30T08:14:13.904Z,11.40
2023-03-30T08:16:40.834Z,11.30
2023-03-30T08:19:08.258Z,11.30
2023-03-30T08:21:34.995Z,11.30
2023-03-30T08:24:02.077Z,11.30
2023-03-30T08:26:28.913Z,11.30
2023-03-30T08:28:55.767Z,11.40
2023-03-30T08:31:22.632Z,11.30
2023-03-30T08:33:49.644Z,11.30
2023-03-30T08:36:16.761Z,11.30
2023-03-30T08:38:45.158Z,11.30
2023-03-30T08:41:30.135Z,11.40
2023-03-30T08:44:07.467Z,11.40
2023-03-30T08:46:34.612Z,11.40
2023-03-30T08:49:07.859Z,11.50
2023-03-30T08:51:35.959Z,11.40
2023-03-30T08:54:07.254Z,11.50
2023-03-30T08:56:57.651Z,11.40
2023-03-30T08:59:42.449Z,11.40
2023-03-30T09:02:32.136Z,11.50
2023-03-30T09:05:24.255Z,11.40
2023-03-30T09:08:06.639Z,11.40
2023-03-30T09:10:41.339Z,11.30
2023-03-30T09:13:12.258Z,11.30
2023-03-30T09:15:54.777Z,11.30
2023-03-30T09:18:27.012Z,11.20
2023-03-30T09:20:57.482Z,11.20
2023-03-30T09:23:25.779Z,11.20
2023-03-30T09:26:04.410Z,11.10
2023-03-30T09:28:45.591Z,11.20
2023-03-30T09:31:21.322Z,11.20
2023-03-30T09:33:59.719Z,11.20
2023-03-30T09:36:39.490Z,11.20
2023-03-30T09:39:10.964Z,11.20
2023-03-30T09:42:21.545Z,11.20
2023-03-30T09:44:50.400Z,11.20
2023-03-30T09:47:23.677Z,11.20
2023-03-30T09:49:59.361Z,11.20
2023-03-30T09:52:28.624Z,11.20
2023-03-30T09:54:55.813Z,11.30
2023-03-30T09:57:40.758Z,11.40
2023-03-30T10:00:26.491Z,11.40
2023-03-30T10:02:58.782Z,11.50
2023-03-30T10:05:27.446Z,11.50
2023-03-30T10:07:57.353Z,11.50
2023-03-30T10:10:28.862Z,11.60
2023-03-30T10:13:05.393Z,11.60
2023-03-30T10:15:32.823Z,11.60
2023-03-30T10:18:19.569Z,11.70
2023-03-30T10:21:00.048Z,11.70
2023-03-30T10:23:33.389Z,11.70
2023-03-30T10:26:04.561Z,11.70
2023-03-30T10:28:33.951Z,11.80
2023-03-30T10:31:05.439Z,11.80
2023-03-30T10:33:40.169Z,11.90
2023-03-30T10:36:07.626Z,11.90
2023-03-30T10:38:35.339Z,11.90
2023-03-30T10:41:29.617Z,11.90
2023-03-30T10:43:56.419Z,11.90
2023-03-30T10:46:24.824Z,11.90
2023-03-30T10:48:57.171Z,11.90
2023-03-30T10:52:05.812Z,11.80
2023-03-30T10:54:41.620Z,11.80
2023-03-30T10:57:16.224Z,11.80
2023-03-30T10:59:45.848Z,11.80
2023-03-30T11:02:56.418Z,11.80
2023-03-30T11:05:32.978Z,11.90
2023-03-30T11:08:17.237Z,11.90
2023-03-30T11:10:53.155Z,11.90
2023-03-30T11:13:39.616Z,11.90
2023-03-30T11:16:18.476Z,12.00
2023-03-30T11:19:05.292Z,12.00
2023-03-30T11:21:50.231Z,12.00
2023-03-30T11:24:24.813Z,12.00
2023-03-30T11:27:23.718Z,12.00
2023-03-30T11:30:20.495Z,12.00
2023-03-30T11:33:11.472Z,12.00
2023-03-30T11:35:41.327Z,12.10
2023-03-30T11:38:19.958Z,12.20
2023-03-30T11:40:51.990Z,12.30
2023-03-30T11:43:21.488Z,12.30
2023-03-30T11:46:06.861Z,12.40
2023-03-30T11:48:52.246Z,12.40
2023-03-30T11:51:22.156Z,12.30
2023-03-30T11:54:23.585Z,12.30
2023-03-30T11:57:20.994Z,12.30
2023-03-30T12:00:22.772Z,12.40
2023-03-30T12:03:15.208Z,12.40
2023-03-30T12:06:04.229Z,12.40
2023-03-30T12:08:58.661Z,12.50
2023-03-30T12:11:39.600Z,12.60
2023-03-30T12:14:27.884Z,12.60
2023-03-30T12:16:59.492Z,12.60
2023-03-30T12:19:42.568Z,12.60
2023-03-30T12:22:35.099Z,12.70
2023-03-30T12:25:17.694Z,12.70
2023-03-30T12:28:03.577Z,12.80
2023-03-30T12:30:43.909Z,13.10
2023-03-30T12:33:13.224Z,13.30
2023-03-30T12:35:49.225Z,13.30
2023-03-30T12:38:20.493Z,13.30
2023-03-30T12:41:02.055Z,13.20
2023-03-30T12:47:18.515Z,13.30
2023-03-30T12:50:10.086Z,13.50
2023-03-30T12:53:06.552Z,13.70
2023-03-30T12:56:01.314Z,13.80
2023-03-30T12:58:43.038Z,13.90
2023-03-30T13:01:20.772Z,13.90
2023-03-30T13:03:54.114Z,13.80
2023-03-30T13:06:36.051Z,13.90
2023-03-30T13:09:08.722Z,13.90
2023-03-30T13:11:56.604Z,13.90
2023-03-30T13:14:35.630Z,13.90
2023-03-30T13:17:02.410Z,13.90
2023-03-30T13:19:32.284Z,13.90
2023-03-30T13:22:26.708Z,14.00
2023-03-30T13:24:57.798Z,14.10
2023-03-30T13:27:30.949Z,14.20
2023-03-30T13:30:09.997Z,14.40
2023-03-30T13:33:04.971Z,14.40
2023-03-30T13:35:50.813Z,14.40
2023-03-30T13:38:36.349Z,14.40
2023-03-30T13:41:21.394Z,14.40
2023-03-30T13:44:05.870Z,14.50
2023-03-30T13:46:42.057Z,14.50
2023-03-30T13:49:15.827Z,14.60
2023-03-30T13:51:43.158Z,14.60
2023-03-30T13:54:27.932Z,14.60
2023-03-30T13:57:22.101Z,14.50
2023-03-30T13:59:55.833Z,14.50
2023-03-30T14:02:25.465Z,14.60
2023-03-30T14:04:52.190Z,14.70
2023-03-30T14:07:22.218Z,14.90
2023-03-30T14:10:12.229Z,15.00
2023-03-30T14:12:40.269Z,15.00
2023-03-30T14:15:37.205Z,14.90
2023-03-30T14:18:05.450Z,14.90
2023-03-30T14:21:01.027Z,14.80
2023-03-30T14:23:47.595Z,14.60
2023-03-30T14:26:29.191Z,14.50
2023-03-30T14:29:02.891Z,14.40
2023-03-30T14:31:38.739Z,14.30
2023-03-30T14:34:28.128Z,14.30
2023-03-30T14:36:58.743Z,14.20
2023-03-30T14:39:26.376Z,14.20
2023-03-30T14:41:53.313Z,14.20
2023-03-30T14:44:23.795Z,14.30
2023-03-30T14:46:52.915Z,14.20
2023-03-30T14:49:24.789Z,14.10
2023-03-30T14:51:53.130Z,14.20
2023-03-30T14:54:23.116Z,14.20
2023-03-30T14:57:00.252Z,14.30
2023-03-30T14:59:28.977Z,14.20
2023-03-30T15:01:56.657Z,14.30
2023-03-30T15:04:27.278Z,14.30
2023-03-30T15:06:54.988Z,14.20
2023-03-30T15:09:24.501Z,14.10
2023-03-30T15:12:01.750Z,14.10
2023-03-30T15:14:35.297Z,14.00
2023-03-30T15:17:13.418Z,14.00
2023-03-30T15:19:40.817Z,14.00
2023-03-30T15:22:30.230Z,13.90
2023-03-30T15:25:00.800Z,14.00
2023-03-30T15:27:28.256Z,13.90
2023-03-30T15:30:01.136Z,13.90
2023-03-30T15:32:36.156Z,14.00
2023-03-30T15:35:37.572Z,14.00
2023-03-30T15:38:17.065Z,14.00
2023-03-30T15:40:46.525Z,14.00
2023-03-30T15:43:29.408Z,14.00
2023-03-30T15:46:07.917Z,13.90
2023-03-30T15:48:49.069Z,13.80
2023-03-30T15:51:22.316Z,13.80
2023-03-30T15:54:10.433Z,13.70
2023-03-30T15:57:05.781Z,13.70
2023-03-30T15:59:52.723Z,13.70
2023-03-30T16:02:41.646Z,13.60
2023-03-30T16:05:17.772Z,13.60
2023-03-30T16:07:44.559Z,13.60
2023-03-30T16:10:15.905Z,13.60
2023-03-30T16:12:45.023Z,13.50
2023-03-30T16:15:16.331Z,13.50
2023-03-30T16:17:43.208Z,13.40
2023-03-30T16:20:30.766Z,13.30
2023-03-30T16:22:58.202Z,13.20
2023-03-30T16:25:38.294Z,13.20
2023-03-30T16:28:16.190Z,13.10
2023-03-30T16:30:45.263Z,13.10
2023-03-30T16:33:12.007Z,13.10
2023-03-30T16:35:38.833Z,13.10
2023-03-30T16:38:06.061Z,13.10
2023-03-30T16:40:43.075Z,13.20
2023-03-30T16:43:10.217Z,13.10
2023-03-30T16:45:37.172Z,13.20
2023-03-30T16:48:04.291Z,13.20
2023-03-30T16:50:41.286Z,13.10
2023-03-30T16:53:09.798Z,13.10
2023-03-30T16:55:37.023Z,13.10
2023-03-30T16:58:04.701Z,13.00
2023-03-30T17:00:46.509Z,13.00
2023-03-30T17:03:13.550Z,12.90
2023-03-30T17:05:40.487Z,12.90
2023-03-30T17:08:16.097Z,12.80
2023-03-30T17:10:42.946Z,12.80
2023-03-30T17:13:09.782Z,12.80
2023-03-30T17:15:38.580Z,12.70
2023-03-30T17:18:09.094Z,12.70
2023-03-30T17:21:16.147Z,12.70
2023-03-30T17:23:44.882Z,12.70
2023-03-30T17:26:14.446Z,12.60
2023-03-30T17:28:42.134Z,12.60
2023-03-30T17:31:22.212Z,12.60
2023-03-30T17:33:49.496Z,12.50
2023-03-30T17:36:23.686Z,12.50
2023-03-30T17:38:51.327Z,12.40
2023-03-30T17:41:19.659Z,12.40
2023-03-30T17:43:48.177Z,12.40
2023-03-30T17:46:17.402Z,12.40
2023-03-30T17:48:44.225Z,12.30
2023-03-30T17:51:11.035Z,12.20
2023-03-30T17:53:38.164Z,12.30
2023-03-30T17:56:05.184Z,12.10
2023-03-30T17:58:34.278Z,12.20
2023-03-30T18:01:03.860Z,12.10
2023-03-30T18:03:31.386Z,12.10
2023-03-30T18:06:00.325Z,12.00
2023-03-30T18:08:28.050Z,12.00
2023-03-30T18:10:57.067Z,12.00
2023-03-30T18:13:26.350Z,11.90
2023-03-30T18:15:55.621Z,11.90
2023-03-30T18:18:25.117Z,11.90
2023-03-30T18:20:57.798Z,11.80
2023-03-30T18:23:25.074Z,11.80
2023-03-30T18:25:52.267Z,11.80
2023-03-30T18:28:26.933Z,11.80
2023-03-30T18:30:57.512Z,11.70
2023-03-30T18:33:25.384Z,11.60
2023-03-30T18:35:54.322Z,11.50
2023-03-30T18:38:22.270Z,11.40
2023-03-30T18:40:53.560Z,11.30
2023-03-30T18:43:20.371Z,11.30
2023-03-30T18:45:49.503Z,11.30
2023-03-30T18:48:19.301Z,11.20
2023-03-30T18:50:48.950Z,11.20
2023-03-30T18:53:18.056Z,11.00
2023-03-30T18:55:47.404Z,10.90
2023-03-30T18:58:24.700Z,10.80
2023-03-30T19:00:52.777Z,10.90
2023-03-30T19:03:21.838Z,11.00
2023-03-30T19:05:49.765Z,11.00
2023-03-30T19:08:18.932Z,10.90
2023-03-30T19:10:47.661Z,10.90
2023-03-30T19:13:17.192Z,10.80
2023-03-30T19:15:47.404Z,10.80
2023-03-30T19:18:15.265Z,10.80
2023-03-30T19:20:42.507Z,10.70
2023-03-30T19:23:15.139Z,10.70
2023-03-30T19:25:43.384Z,10.60
2023-03-30T19:28:10.843Z,10.60
2023-03-30T19:30:39.520Z,10.50
2023-03-30T19:33:09.891Z,10.40
2023-03-30T19:35:37.048Z,10.40
2023-03-30T19:38:03.966Z,10.40
2023-03-30T19:40:30.695Z,10.50
2023-03-30T19:42:57.525Z,10.50
2023-03-30T19:45:24.347Z,10.50
2023-03-30T19:47:51.576Z,10.40
2023-03-30T19:50:20.208Z,10.40
2023-03-30T19:52:49.839Z,10.40
2023-03-30T19:55:18.174Z,10.40
2023-03-30T19:57:45.192Z,10.40
2023-03-30T20:00:15.253Z,10.30
2023-03-30T20:02:43.992Z,10.20
2023-03-30T20:05:10.790Z,10.20
2023-03-30T20:07:37.859Z,10.10
2023-03-30T20:10:06.358Z,10.00
2023-03-30T20:12:34.269Z,10.00
2023-03-30T20:15:01.141Z,9.90
2023-03-30T20:17:31.362Z,9.90
2023-03-30T20:19:58.115Z,9.80
2023-03-30T20:22:25.491Z,9.80
2023-03-30T20:24:52.235Z,9.80
2023-03-30T20:27:18.959Z,9.80
2023-03-30T20:29:45.712Z,9.80
2023-03-30T20:32:12.855Z,9.70
2023-03-30T20:34:40.247Z,9.70
2023-03-30T20:37:07.027Z,9.70
2023-03-30T20:39:34.475Z,9.60
2023-03-30T20:42:01.955Z,9.70
2023-03-30T20:44:31.920Z,9.70
2023-03-30T20:46:59.300Z,9.70
2023-03-30T20:49:26.639Z,9.70
2023-03-30T20:51:56.233Z,9.70
2023-03-30T20:54:22.970Z,9.70
2023-03-30T20:56:49.737Z,9.60
2023-03-30T20:59:16.770Z,9.60
2023-03-30T21:01:45.817Z,9.50
2023-03-30T21:04:13.299Z,9.40
2023-03-30T21:06:40.088Z,9.50
2023-03-30T21:09:07.145Z,9.50
2023-03-30T21:11:38.972Z,9.30
2023-03-30T21:14:08.142Z,9.30
2023-03-30T21:16:37.278Z,9.40
2023-03-30T21:19:07.114Z,9.40
2023-03-30T21:21:34.970Z,9.40
2023-03-30T21:24:02.345Z,9.50
2023-03-30T21:26:29.414Z,9.50
2023-03-30T21:28:56.782Z,9.60
2023-03-30T21:31:23.872Z,9.50
2023-03-30T21:33:50.855Z,9.50
2023-03-30T21:36:17.670Z,9.50
2023-03-30T21:38:44.587Z,9.50
2023-03-30T21:41:17.159Z,9.60
2023-03-30T21:43:46.102Z,9.50
2023-03-30T21:46:18.621Z,9.50
2023-03-30T21:48:46.383Z,9.50
2023-03-30T21:51:18.639Z,9.40
2023-03-30T21:53:48.282Z,9.40
2023-03-30T21:56:15.699Z,9.40
2023-03-30T21:58:42.603Z,9.40
2023-03-30T22:01:12.717Z,9.40
2023-03-30T22:03:44.908Z,9.50
2023-03-30T22:06:13.516Z,9.50
2023-03-30T22:08:40.820Z,9.40
2023-03-30T22:11:13.752Z,9.40
2023-03-30T22:13:41.018Z,9.40
2023-03-30T22:16:13.791Z,9.40
2023-03-30T22:18:41.867Z,9.40
2023-03-30T22:21:12.012Z,9.40
2023-03-30T22:23:38.839Z,9.30
2023-03-30T22:26:06.696Z,9.20
2023-03-30T22:28:34.519Z,9.30
2023-03-30T22:31:01.335Z,9.20
2023-03-30T22:33:29.125Z,9.20
2023-03-30T22:35:57.167Z,9.20
2023-03-30T22:38:24.059Z,9.10
2023-03-30T22:40:51.026Z,9.20
2023-03-30T22:43:17.853Z,9.20
2023-03-30T22:45:44.582Z,9.10
2023-03-30T22:48:11.268Z,9.20
2023-03-30T22:50:37.998Z,9.20
2023-03-30T22:53:04.702Z,9.10
2023-03-30T22:55:31.441Z,9.20
2023-03-30T22:57:58.191Z,9.10
2023-03-30T23:00:25.118Z,9.20
2023-03-30T23:02:52.211Z,9.10
2023-03-30T23:05:21.559Z,9.10
2023-03-30T23:07:48.946Z,9.10
2023-03-30T23:10:22.313Z,9.00
2023-03-30T23:12:49.433Z,9.00
2023-03-30T23:15:18.322Z,9.00
2023-03-30T23:17:47.595Z,8.90
2023-03-30T23:20:15.497Z,8.90
2023-03-30T23:22:42.438Z,8.80
2023-03-30T23:25:09.898Z,8.80
2023-03-30T23:27:37.560Z,8.80
2023-03-30T23:30:05.848Z,8.80
2023-03-30T23:32:34.218Z,8.70
2023-03-30T23:35:01.827Z,8.70
2023-03-30T23:37:30.259Z,8.80
2023-03-30T23:40:01.944Z,8.80
2023-03-30T23:42:29.199Z,8.80
2023-03-30T23:44:56.198Z,8.80
2023-03-30T23:47:22.898Z,8.80
2023-03-30T23:49:49.611Z,8.80
2023-03-30T23:52:16.537Z,8.80
2023-03-30T23:54:43.219Z,8.80
2023-03-30T23:57:09.966Z,8.80
2023-03-30T23:59:37.402Z,8.70
